Time;durP1;ratioP1;P1;durP2;ratioP2;P2;SDS_P1;SDS_P2;PMS_P1;PMS_P2;Temp;Humidity;BMP_temperature;BMP_pressure;BME280_temperature;BME280_humidity;BME280_pressure;Samples;Min_cycle;Max_cycle;Signal;HPM_P1;HPM_P2
2021/03/05 00:00:39;;;;;;;22.02;6.57;;;3.00;99.90;;;4.17;88.06;101150.13;5033317;28;20037;-80
2021/03/05 00:03:08;;;;;;;26.45;6.28;;;3.10;99.90;;;4.15;87.21;101152.38;5038045;28;20036;-80
2021/03/05 00:05:38;;;;;;;19.20;6.03;;;3.10;99.90;;;4.17;87.79;101163.94;5027277;28;20022;-81
2021/03/05 00:08:11;;;;;;;23.13;6.07;;;3.10;99.90;;;4.17;86.73;101163.16;5050739;28;20028;-81
2021/03/05 00:10:41;;;;;;;22.33;6.35;;;3.10;99.90;;;4.19;86.60;101170.00;5033587;28;20026;-79
2021/03/05 00:13:10;;;;;;;17.50;6.03;;;3.10;99.90;;;4.17;86.67;101163.16;5030813;28;20022;-79
2021/03/05 00:15:41;;;;;;;19.70;5.30;;;3.20;99.90;;;4.21;86.74;101166.91;5031267;28;20025;-79
2021/03/05 00:18:07;;;;;;;15.73;5.82;;;3.20;99.90;;;4.08;87.37;101170.47;5050923;28;20037;-78
2021/03/05 00:20:44;;;;;;;24.00;6.03;;;3.10;99.90;;;4.06;87.76;101168.03;5037337;28;20101;-79
2021/03/05 00:23:11;;;;;;;17.70;5.50;;;3.10;99.90;;;4.05;87.75;101171.91;5020764;28;20026;-81
2021/03/05 00:25:37;;;;;;;19.63;5.97;;;3.10;99.90;;;4.06;88.25;101173.53;5023015;28;20046;-81
2021/03/05 00:28:05;;;;;;;21.63;6.03;;;3.00;99.90;;;4.00;88.99;101173.94;5031823;28;20120;-79
2021/03/05 00:30:33;;;;;;;26.50;6.30;;;3.00;99.90;;;3.96;89.71;101175.66;5029538;28;20044;-78
2021/03/05 00:32:59;;;;;;;25.58;6.72;;;3.00;99.90;;;4.00;89.96;101177.53;5029856;28;20425;-79
2021/03/05 00:35:25;;;;;;;27.63;6.47;;;3.00;99.90;;;3.99;90.04;101183.34;5021169;28;20408;-79
2021/03/05 00:37:52;;;;;;;26.83;6.07;;;2.90;99.90;;;3.99;90.17;101177.81;5023859;28;20081;-79
2021/03/05 00:40:23;;;;;;;27.98;7.22;;;3.00;99.90;;;4.05;90.12;101182.13;5029562;28;20036;-78
2021/03/05 00:42:51;;;;;;;30.98;7.45;;;3.00;99.90;;;4.01;90.36;101181.94;5029987;28;20021;-79
2021/03/05 00:45:22;;;;;;;22.05;7.38;;;3.00;99.90;;;3.99;90.83;101184.16;5022651;28;20561;-80
2021/03/05 00:47:49;;;;;;;26.23;7.78;;;2.90;99.90;;;4.06;91.03;101187.38;5027561;28;20068;-81
2021/03/05 00:50:19;;;;;;;29.08;8.00;;;3.00;99.90;;;4.04;91.52;101183.28;5034464;28;20025;-78
2021/03/05 00:52:48;;;;;;;24.42;8.32;;;3.00;99.90;;;4.03;91.18;101193.50;5027910;28;20152;-81
2021/03/05 00:55:13;;;;;;;19.77;7.43;;;3.00;99.90;;;4.04;92.05;101199.84;5032231;28;20033;-80
2021/03/05 00:57:40;;;;;;;30.67;8.60;;;3.00;99.90;;;4.06;91.95;101189.31;5027088;28;20037;-80
2021/03/05 01:00:14;;;;;;;22.63;8.27;;;3.00;99.90;;;4.08;92.05;101201.69;5042719;28;20045;-81
2021/03/05 01:02:40;;;;;;;34.58;9.10;;;3.00;99.90;;;4.08;91.95;101201.69;5034343;28;20021;-80
2021/03/05 01:05:07;;;;;;;26.25;8.55;;;3.00;99.90;;;4.08;92.01;101198.09;5028353;28;20030;-80
2021/03/05 01:07:34;;;;;;;34.22;8.95;;;3.00;99.90;;;4.11;92.21;101203.06;5030695;28;20048;-80
2021/03/05 01:10:01;;;;;;;30.17;9.10;;;3.00;99.90;;;4.10;92.30;101205.00;5026981;28;20030;-80
2021/03/05 01:12:27;;;;;;;39.28;10.40;;;3.00;99.90;;;4.06;93.04;101212.25;5031377;28;20049;-81
2021/03/05 01:14:53;;;;;;;29.02;8.80;;;3.00;99.90;;;4.05;93.17;101202.31;5027280;28;20080;-79
2021/03/05 01:17:19;;;;;;;24.95;9.05;;;3.00;99.90;;;4.07;92.97;101199.25;5028438;28;20033;-80
2021/03/05 01:19:45;;;;;;;34.67;9.82;;;3.00;99.90;;;4.12;93.41;101199.97;5033214;28;20029;-80
2021/03/05 01:22:12;;;;;;;24.35;9.18;;;3.00;99.90;;;4.11;93.30;101208.59;5036655;28;20033;-80
2021/03/05 01:24:38;;;;;;;32.63;10.52;;;3.00;99.90;;;4.15;93.42;101198.56;5025107;28;20030;-80
2021/03/05 01:27:04;;;;;;;35.95;12.07;;;3.00;99.90;;;4.11;93.63;101205.84;5030556;28;20104;-80
2021/03/05 01:29:30;;;;;;;38.28;12.13;;;3.10;99.90;;;3.88;94.48;101210.34;5021186;28;20030;-79
2021/03/05 01:31:56;;;;;;;30.33;12.20;;;3.10;99.90;;;3.99;94.53;101213.75;5038525;28;20616;-80
2021/03/05 01:34:22;;;;;;;37.20;13.05;;;3.00;99.90;;;4.14;94.20;101213.53;5034923;28;20092;-80
2021/03/05 01:36:48;;;;;;;34.28;15.60;;;3.10;99.90;;;4.17;93.79;101215.69;5026417;28;20072;-80
2021/03/05 01:39:14;;;;;;;40.55;16.95;;;3.10;99.90;;;4.23;93.11;101218.06;5032971;28;20033;-79
2021/03/05 01:41:40;;;;;;;37.10;16.77;;;3.20;99.90;;;4.25;92.51;101214.97;5025731;28;20436;-80
2021/03/05 01:44:13;;;;;;;34.72;17.55;;;3.20;99.90;;;4.26;91.55;101216.63;5023015;28;20025;-78
2021/03/05 01:46:39;;;;;;;35.97;18.42;;;3.20;99.90;;;4.32;91.28;101220.94;5029734;28;20118;-80
2021/03/05 01:49:06;;;;;;;45.58;19.73;;;3.30;99.90;;;4.26;90.60;101222.16;5039567;28;20038;-78
2021/03/05 01:51:37;;;;;;;33.78;17.33;;;3.30;99.90;;;4.23;89.47;101231.06;5030306;28;20022;-78
2021/03/05 01:54:05;;;;;;;34.60;17.55;;;3.30;99.90;;;4.25;89.72;101226.03;5037288;28;20032;-81
2021/03/05 01:56:38;;;;;;;33.97;17.27;;;3.30;99.90;;;4.34;89.13;101228.91;5038937;28;20029;-79
2021/03/05 01:59:10;;;;;;;36.65;18.63;;;3.30;99.90;;;4.19;88.94;101236.38;5038161;28;20276;-80
2021/03/05 02:01:38;;;;;;;34.30;18.52;;;3.30;99.90;;;4.24;88.56;101240.97;5036694;28;20048;-80
2021/03/05 02:04:10;;;;;;;34.35;17.92;;;3.20;99.90;;;4.27;88.58;101234.03;5034642;28;20026;-81
2021/03/05 02:06:38;;;;;;;32.78;17.65;;;3.30;99.90;;;4.24;88.80;101243.75;5024288;28;20041;-78
2021/03/05 02:09:07;;;;;;;37.70;18.17;;;3.30;99.90;;;4.19;88.23;101241.06;5030896;28;20065;-80
2021/03/05 02:11:33;;;;;;;34.63;16.95;;;3.20;99.90;;;4.16;87.71;101250.78;5037639;28;20025;-80
2021/03/05 02:14:06;;;;;;;30.42;17.63;;;3.30;99.90;;;4.17;88.07;101255.19;5042266;28;20037;-80
2021/03/05 02:17:07;;;;;;;30.67;17.30;;;3.20;99.90;;;4.21;87.22;101259.00;5034472;28;20077;-80
2021/03/05 02:20:03;;;;;;;35.00;18.30;;;3.20;99.90;;;4.19;87.81;101255.72;5031997;28;20021;-78
2021/03/05 02:23:47;;;;;;;33.28;17.58;;;3.20;99.90;;;4.22;87.11;101262.59;5047601;28;20657;-78
2021/03/05 02:26:55;;;;;;;29.75;16.23;;;3.20;99.90;;;4.09;85.76;101266.09;5028340;28;20045;-80
2021/03/05 02:30:16;;;;;;;26.30;14.43;;;3.20;99.90;;;4.07;86.13;101269.19;5045586;28;20048;-78
2021/03/05 02:33:12;;;;;;;28.70;14.77;;;3.20;99.90;;;4.11;85.18;101263.88;5030744;28;20061;-78
2021/03/05 02:35:43;;;;;;;24.20;13.68;;;3.20;99.90;;;4.08;85.70;101259.75;5033239;28;20022;-79
2021/03/05 02:38:12;;;;;;;27.00;15.63;;;3.20;99.90;;;4.17;85.47;101260.72;5036467;28;20466;-78
2021/03/05 02:40:45;;;;;;;29.88;16.35;;;3.20;99.90;;;4.12;85.36;101271.03;5031362;28;20469;-80
2021/03/05 02:43:18;;;;;;;28.50;15.48;;;3.20;99.90;;;4.08;86.05;101269.97;5030410;28;20029;-79
2021/03/05 02:45:55;;;;;;;29.13;15.30;;;3.20;99.90;;;4.07;85.73;101274.72;5039437;28;20022;-78
2021/03/05 02:48:31;;;;;;;27.80;14.68;;;3.20;99.90;;;4.12;86.18;101282.09;5036533;28;20112;-79
2021/03/05 02:51:04;;;;;;;25.20;15.15;;;3.10;99.90;;;4.08;86.72;101284.63;5043555;28;20033;-79
2021/03/05 02:53:37;;;;;;;22.85;13.95;;;3.10;99.90;;;3.94;86.06;101280.16;5026968;28;20419;-78
2021/03/05 02:56:13;;;;;;;25.73;14.27;;;3.10;99.90;;;4.03;85.98;101286.66;5034308;28;20041;-80
2021/03/05 02:58:46;;;;;;;24.25;13.80;;;3.10;99.90;;;4.01;85.64;101277.84;5040426;28;20044;-79
2021/03/05 03:01:15;;;;;;;23.60;12.77;;;3.00;99.90;;;3.94;85.28;101291.22;5030958;28;20032;-78
2021/03/05 03:03:43;;;;;;;23.77;13.98;;;3.00;99.90;;;3.96;85.06;101287.03;5041638;28;20017;-80
2021/03/05 03:06:15;;;;;;;22.15;12.88;;;3.10;99.90;;;4.02;84.60;101293.31;5035440;28;20026;-80
2021/03/05 03:08:44;;;;;;;22.63;11.93;;;3.00;99.90;;;3.97;84.22;101301.69;5041662;28;20030;-79
2021/03/05 03:11:11;;;;;;;21.45;12.55;;;3.10;99.90;;;4.02;84.64;101296.06;5041218;28;20056;-79
2021/03/05 03:13:38;;;;;;;23.80;12.00;;;3.10;99.90;;;4.03;83.92;101300.47;5051651;28;20085;-79
2021/03/05 03:16:08;;;;;;;24.45;13.38;;;3.10;99.90;;;4.03;83.42;101304.06;5038110;28;20395;-79
2021/03/05 03:18:39;;;;;;;21.70;11.85;;;3.10;99.90;;;3.99;83.09;101291.13;5034090;28;20026;-79
2021/03/05 03:21:07;;;;;;;23.10;11.90;;;3.10;99.90;;;3.96;83.53;101300.84;5036742;28;20101;-80
2021/03/05 03:23:35;;;;;;;21.42;12.77;;;3.10;99.90;;;4.00;83.32;101309.38;5034131;28;20033;-80
2021/03/05 03:26:03;;;;;;;21.35;12.88;;;3.10;99.90;;;4.00;83.69;101324.03;5029425;28;20044;-78
2021/03/05 03:28:29;;;;;;;21.52;12.80;;;3.10;99.90;;;4.02;83.51;101319.00;5042581;28;20033;-79
2021/03/05 03:30:55;;;;;;;23.73;12.98;;;3.10;99.90;;;4.08;83.36;101331.63;5047095;28;20060;-78
2021/03/05 03:33:22;;;;;;;24.65;13.18;;;3.10;99.90;;;4.13;83.64;101326.03;5029290;28;20021;-78
2021/03/05 03:35:48;;;;;;;20.38;13.43;;;3.10;99.90;;;4.11;84.57;101322.72;5036537;28;20033;-78
2021/03/05 03:38:15;;;;;;;24.15;13.80;;;3.10;99.90;;;4.07;85.17;101326.41;5039481;28;20029;-80
2021/03/05 03:40:44;;;;;;;25.83;13.40;;;3.10;99.90;;;4.11;84.68;101328.25;5041655;28;20029;-79
2021/03/05 03:43:10;;;;;;;25.38;14.25;;;3.10;99.90;;;4.05;85.15;101335.00;5042878;28;20029;-80
2021/03/05 03:45:41;;;;;;;21.70;13.18;;;3.10;99.90;;;4.09;84.70;101332.44;5037818;28;20022;-80
2021/03/05 03:48:09;;;;;;;22.75;13.93;;;3.00;99.90;;;4.09;84.81;101335.22;5035832;28;20482;-79
2021/03/05 03:50:51;;;;;;;21.33;13.35;;;3.00;99.90;;;4.09;84.73;101337.97;5027171;28;20033;-79
2021/03/05 03:53:26;;;;;;;21.42;12.13;;;3.00;99.90;;;4.08;85.03;101341.84;5042033;28;20125;-79
2021/03/05 03:55:55;;;;;;;23.00;10.97;;;3.00;99.90;;;4.03;84.68;101341.94;5043139;28;20032;-79
2021/03/05 03:58:27;;;;;;;17.42;9.60;;;3.00;99.90;;;3.92;83.54;101355.06;5040886;28;20275;-79
2021/03/05 04:00:59;;;;;;;15.95;8.35;;;3.00;99.90;;;3.92;82.89;101357.84;5037939;28;20030;-79
2021/03/05 04:03:33;;;;;;;14.93;8.85;;;2.90;99.90;;;3.85;83.55;101357.41;5038150;28;20112;-80
2021/03/05 04:06:02;;;;;;;15.65;8.70;;;2.80;99.90;;;3.76;83.31;101364.69;5025752;28;20030;-79
2021/03/05 04:08:32;;;;;;;17.15;7.60;;;2.80;99.90;;;3.70;82.67;101372.22;5038618;28;20021;-78
2021/03/05 04:10:58;;;;;;;15.00;7.80;;;2.70;99.90;;;3.66;83.03;101373.13;5041172;28;20025;-79
2021/03/05 04:13:25;;;;;;;10.60;6.45;;;2.70;99.90;;;3.66;82.29;101384.16;5039485;28;20272;-79
2021/03/05 04:15:51;;;;;;;10.10;5.93;;;2.60;99.90;;;3.54;81.21;101379.03;5023813;28;20125;-80
2021/03/05 04:18:17;;;;;;;12.90;6.43;;;2.60;99.90;;;3.48;82.37;101390.44;5050008;28;20045;-80
2021/03/05 04:20:47;;;;;;;10.90;6.03;;;2.50;99.90;;;3.48;82.24;101396.78;5031737;28;20115;-78
2021/03/05 04:23:13;;;;;;;9.57;5.57;;;2.50;99.90;;;3.49;81.92;101400.38;5027805;28;20461;-80
2021/03/05 04:25:39;;;;;;;9.07;4.68;;;2.50;99.90;;;3.29;81.90;101395.06;5029892;28;20030;-79
2021/03/05 04:28:06;;;;;;;9.90;4.53;;;2.40;99.90;;;3.32;81.88;101397.22;5023297;28;20110;-80
2021/03/05 04:30:32;;;;;;;8.75;3.97;;;2.40;99.90;;;3.25;80.01;101407.78;5029947;28;20029;-80
2021/03/05 04:32:57;;;;;;;13.25;4.85;;;2.30;99.90;;;3.17;79.17;101410.09;5038778;28;20017;-80
2021/03/05 04:35:23;;;;;;;7.55;3.42;;;2.20;99.90;;;2.95;78.38;101409.75;5052929;28;20029;-80
2021/03/05 04:37:49;;;;;;;6.22;3.45;;;2.10;99.90;;;2.87;77.63;101415.84;5039125;28;20089;-80
2021/03/05 04:40:15;;;;;;;8.00;2.72;;;2.00;99.90;;;2.63;78.18;101423.22;5040041;28;20029;-80
2021/03/05 04:42:41;;;;;;;12.13;2.63;;;1.80;99.90;;;2.42;77.68;101432.72;5035238;28;20021;-79
2021/03/05 04:45:08;;;;;;;5.45;3.03;;;1.70;99.90;;;2.30;78.07;101429.50;5041243;28;20025;-79
2021/03/05 04:47:34;;;;;;;5.70;2.45;;;1.60;99.90;;;2.28;77.74;101443.53;5041181;28;20025;-79
2021/03/05 04:50:01;;;;;;;7.28;2.90;;;1.50;99.90;;;2.06;77.99;101432.09;5034390;28;20089;-79
2021/03/05 04:52:29;;;;;;;5.97;2.58;;;1.40;99.90;;;2.07;77.59;101436.50;5017993;28;20034;-78
2021/03/05 04:55:10;;;;;;;7.32;2.60;;;1.30;99.90;;;2.02;78.19;101445.59;5017425;28;20109;-80
2021/03/05 04:57:36;;;;;;;6.78;2.33;;;1.20;99.90;;;1.96;78.59;101446.72;5018408;28;20048;-79
2021/03/05 05:00:06;;;;;;;9.57;3.30;;;1.20;99.90;;;1.88;78.66;101452.00;5024526;28;20037;-79
2021/03/05 05:02:32;;;;;;;6.50;2.65;;;1.10;99.90;;;1.87;79.05;101461.38;5028774;28;20036;-77
2021/03/05 05:04:57;;;;;;;4.32;2.67;;;1.00;99.90;;;1.82;79.03;101455.88;5018294;28;20026;-78
2021/03/05 05:07:23;;;;;;;4.72;2.80;;;0.90;99.90;;;1.68;79.32;101452.06;5024862;28;20124;-78
2021/03/05 05:09:51;;;;;;;5.78;2.58;;;0.80;99.90;;;1.70;79.29;101449.88;5032546;28;20474;-78
2021/03/05 05:12:18;;;;;;;7.28;2.35;;;0.80;99.90;;;1.66;78.99;101459.78;5024545;28;20025;-80
2021/03/05 05:14:44;;;;;;;3.13;2.20;;;0.70;99.90;;;1.58;78.82;101459.25;5023903;28;20042;-79
2021/03/05 05:17:11;;;;;;;7.43;2.47;;;0.70;99.90;;;1.59;79.17;101465.59;5021198;28;20029;-81
2021/03/05 05:19:36;;;;;;;7.63;2.45;;;0.60;99.90;;;1.46;79.32;101467.00;5016849;28;20041;-80
2021/03/05 05:22:03;;;;;;;4.75;2.45;;;0.60;99.90;;;1.38;80.21;101463.97;5026275;28;20021;-81
2021/03/05 05:24:29;;;;;;;7.28;2.63;;;0.50;99.90;;;1.31;80.75;101474.44;5024721;28;20029;-82
2021/03/05 05:26:55;;;;;;;7.15;2.75;;;0.40;99.90;;;1.21;81.20;101475.28;5021061;28;20029;-81
2021/03/05 05:29:20;;;;;;;7.50;2.70;;;0.30;99.90;;;1.12;82.04;101478.84;5029127;28;20025;-81
2021/03/05 05:31:46;;;;;;;9.30;2.90;;;0.30;99.90;;;1.09;82.11;101480.25;5041583;28;20022;-80
2021/03/05 05:34:12;;;;;;;5.35;2.60;;;0.20;99.90;;;1.02;82.47;101488.75;5033625;28;20112;-80
2021/03/05 05:36:38;;;;;;;7.43;2.60;;;0.10;99.90;;;1.00;81.62;101488.19;5028566;28;20461;-79
2021/03/05 05:39:04;;;;;;;6.50;2.95;;;0.10;99.90;;;1.03;81.00;101492.31;5033116;28;20036;-80
2021/03/05 05:41:32;;;;;;;6.18;2.13;;;0.20;99.90;;;1.05;81.44;101499.22;5028807;28;20021;-80
2021/03/05 05:43:58;;;;;;;9.45;2.42;;;0.20;99.90;;;1.04;80.24;101500.31;5054452;28;20026;-79
2021/03/05 05:46:26;;;;;;;6.65;2.30;;;0.20;99.90;;;1.04;79.97;101507.72;5038850;28;20039;-80
2021/03/05 05:48:53;;;;;;;4.95;2.30;;;0.20;99.90;;;0.99;79.92;101505.81;5040725;28;20021;-79
2021/03/05 05:51:26;;;;;;;6.05;2.22;;;0.10;99.90;;;0.90;80.47;101510.19;5032355;28;20040;-79
2021/03/05 05:53:56;;;;;;;4.75;2.10;;;0.10;99.90;;;0.93;80.64;101515.13;5037692;28;20409;-81
2021/03/05 05:56:22;;;;;;;4.60;2.13;;;0.10;99.90;;;0.91;80.61;101514.59;5039247;28;20032;-81
2021/03/05 05:58:50;;;;;;;5.03;1.80;;;0.10;99.90;;;0.85;80.36;101507.44;5033565;28;20026;-81
2021/03/05 06:01:16;;;;;;;6.47;2.30;;;0.00;99.90;;;0.79;80.51;101514.03;5040582;28;20021;-80
2021/03/05 06:03:43;;;;;;;5.53;2.10;;;0.00;99.90;;;0.72;80.90;101516.22;5036783;28;20464;-79
2021/03/05 06:06:12;;;;;;;8.55;2.25;;;-0.10;99.90;;;0.69;80.96;101525.00;5031407;28;20040;-80
2021/03/05 06:08:38;;;;;;;12.77;2.55;;;-0.10;99.90;;;0.71;81.38;101525.56;5045789;28;20049;-81
2021/03/05 06:11:04;;;;;;;6.15;2.30;;;-0.10;99.90;;;0.68;80.93;101528.84;5058780;28;20048;-80
2021/03/05 06:13:30;;;;;;;5.30;2.10;;;-0.10;99.90;;;0.66;81.08;101527.47;5040280;28;20026;-79
2021/03/05 06:16:19;;;;;;;8.00;2.58;;;-0.20;99.90;;;0.68;80.70;101531.59;5051541;28;20111;-81
2021/03/05 06:18:46;;;;;;;5.43;2.03;;;-0.20;99.90;;;0.65;80.78;101545.06;5032428;28;20036;-80
2021/03/05 06:21:14;;;;;;;6.97;2.30;;;-0.20;99.90;;;0.65;81.06;101545.06;5018927;28;20022;-80
2021/03/05 06:24:00;;;;;;;3.72;2.08;;;-0.20;99.90;;;0.64;81.07;101554.41;5029383;28;20025;-80
2021/03/05 06:26:27;;;;;;;4.15;2.25;;;-0.20;99.90;;;0.62;81.55;101565.66;5025138;28;20369;-83
2021/03/05 06:29:07;;;;;;;5.15;2.17;;;-0.20;99.90;;;0.66;81.61;101568.72;5058738;28;20033;-83
2021/03/05 06:31:34;;;;;;;6.25;2.45;;;-0.20;99.90;;;0.69;81.29;101577.25;5038659;28;20081;-82
2021/03/05 06:34:03;;;;;;;5.75;2.33;;;-0.20;99.90;;;0.74;81.26;101581.94;5047005;28;20038;-82
2021/03/05 06:36:31;;;;;;;6.93;2.40;;;-0.20;99.90;;;0.81;81.31;101593.50;5044864;28;20026;-82
2021/03/05 06:38:58;;;;;;;9.18;2.88;;;-0.10;99.90;;;0.89;80.83;101596.56;5043258;28;20025;-82
2021/03/05 06:41:26;;;;;;;7.63;2.47;;;0.00;99.90;;;0.95;80.52;101605.66;5036096;28;20060;-82
2021/03/05 06:43:55;;;;;;;4.30;2.40;;;0.00;99.90;;;0.98;80.38;101613.38;5026150;28;20018;-82
2021/03/05 06:46:43;;;;;;;6.45;2.20;;;0.00;99.90;;;0.99;80.39;101615.03;5029638;28;20026;-82
2021/03/05 06:49:14;;;;;;;5.50;2.15;;;0.00;99.90;;;0.96;80.19;101616.38;5023566;28;20029;-80
2021/03/05 06:51:41;;;;;;;6.43;2.22;;;0.10;99.90;;;1.08;79.87;101620.81;5034451;28;20030;-82
2021/03/05 06:54:15;;;;;;;6.45;2.50;;;0.10;99.90;;;1.05;79.77;101625.78;5044662;28;20041;-83
2021/03/05 06:56:48;;;;;;;10.77;2.30;;;0.10;99.90;;;1.03;79.89;101627.94;5048112;28;20049;-80
2021/03/05 06:59:20;;;;;;;7.30;2.05;;;0.10;99.90;;;0.97;79.09;101622.69;5031124;28;20089;-81
2021/03/05 07:01:48;;;;;;;5.72;2.70;;;0.10;99.90;;;0.89;79.79;101648.84;5037986;28;20017;-81
2021/03/05 07:04:24;;;;;;;6.18;2.50;;;0.10;99.90;;;1.08;79.83;101640.91;5035694;28;20022;-82
2021/03/05 07:07:07;;;;;;;7.90;2.90;;;0.20;99.90;;;1.20;79.58;101658.00;5021296;28;20018;-82
2021/03/05 07:09:54;;;;;;;8.65;2.55;;;0.30;99.90;;;1.55;77.69;101655.31;5022486;28;20045;-80
2021/03/05 07:12:25;;;;;;;;;;;0.50;99.90;;;1.75;77.78;101664.69;5045103;28;20393;-80
2021/03/05 07:15:10;;;;;;;5.38;2.15;;;0.60;99.90;;;1.75;77.72;101664.69;5045450;28;19909;-80
2021/03/05 07:17:37;;;;;;;7.68;2.13;;;0.80;99.90;;;2.08;76.36;101666.88;5048154;28;20048;-79
2021/03/05 07:20:05;;;;;;;7.60;2.42;;;1.00;99.90;;;2.30;74.83;101672.91;5039482;28;20025;-81
2021/03/05 07:22:31;;;;;;;5.47;1.70;;;1.10;99.90;;;2.04;75.06;101674.88;5035849;28;20192;-81
2021/03/05 07:25:01;;;;;;;7.25;2.20;;;1.10;99.90;;;2.07;75.31;101677.06;5024757;28;20052;-81
2021/03/05 07:27:38;;;;;;;3.35;1.85;;;1.10;99.90;;;2.10;75.08;101675.69;5029282;28;20402;-81
2021/03/05 07:30:13;;;;;;;6.82;1.73;;;1.10;99.90;;;2.07;75.25;101690.03;5037028;28;20022;-83
2021/03/05 07:32:47;;;;;;;9.48;2.10;;;1.20;99.90;;;2.11;74.60;101691.13;5033573;28;20022;-83
2021/03/05 07:35:31;;;;;;;4.75;1.98;;;1.30;99.90;;;2.16;74.22;101690.28;5032865;28;20453;-82
2021/03/05 07:38:14;;;;;;;4.88;2.10;;;1.30;99.90;;;2.35;74.19;101696.88;5026212;28;20026;-82
2021/03/05 07:40:44;;;;;;;6.07;1.95;;;1.40;99.90;;;2.33;73.27;101696.34;5028142;28;20033;-81
2021/03/05 07:43:12;;;;;;;5.43;1.70;;;1.40;99.90;;;2.32;73.23;101698.25;5039734;28;20021;-81
2021/03/05 07:45:38;;;;;;;7.20;2.30;;;1.40;99.90;;;2.14;74.17;101704.34;5027396;28;20482;-84
2021/03/05 07:48:11;;;;;;;8.40;2.05;;;1.30;99.90;;;1.87;75.67;101714.81;5032004;28;20022;-86
2021/03/05 07:50:38;;;;;;;5.85;1.95;;;1.30;99.90;;;2.09;75.00;101712.59;5043817;28;20030;-81
2021/03/05 07:53:04;;;;;;;6.30;2.35;;;1.40;99.90;;;2.20;75.29;101725.31;5036530;28;20148;-83
2021/03/05 07:55:43;;;;;;;6.22;2.30;;;1.30;99.90;;;2.23;74.60;101726.66;5041953;28;20316;-83
2021/03/05 07:58:10;;;;;;;5.20;2.03;;;1.40;99.90;;;2.20;74.69;101729.97;5021954;28;20133;-82
2021/03/05 08:00:49;;;;;;;6.90;2.05;;;1.30;99.90;;;2.13;75.31;101736.59;5032366;28;20053;-81
2021/03/05 08:03:25;;;;;;;5.00;1.98;;;1.30;99.90;;;2.24;75.05;101740.19;5026533;28;20022;-81
2021/03/05 08:05:58;;;;;;;10.63;2.63;;;1.30;99.90;;;2.29;74.11;101739.34;5032536;28;20033;-82
2021/03/05 08:08:29;;;;;;;10.02;2.63;;;1.40;99.90;;;2.51;74.25;101748.13;5025688;28;20029;-81
2021/03/05 08:11:05;;;;;;;10.30;2.33;;;1.50;99.90;;;2.49;73.46;101748.44;5035483;28;20073;-83
2021/03/05 08:16:28;;;;;;;6.53;3.20;;;1.60;99.90;;;2.50;73.80;101752.03;5029320;28;20036;-83
2021/03/05 08:19:06;;;;;;;9.38;2.40;;;1.60;99.90;;;2.39;73.78;101750.38;5026061;28;20025;-82
2021/03/05 08:21:50;;;;;;;10.05;2.78;;;1.50;99.90;;;2.12;74.66;101756.16;5037334;28;20389;-82
2021/03/05 08:24:39;;;;;;;9.05;2.70;;;1.40;99.90;;;2.27;75.17;101752.59;5030066;28;20448;-81
2021/03/05 08:27:13;;;;;;;7.20;2.90;;;1.40;99.90;;;2.05;74.79;101761.97;5021616;28;20182;-81
2021/03/05 08:30:12;;;;;;;6.10;2.75;;;1.30;99.90;;;2.03;75.21;101760.56;5026597;28;20022;-83
2021/03/05 08:32:48;;;;;;;8.88;2.60;;;1.20;99.90;;;1.97;75.81;101761.66;5034129;28;20042;-83
2021/03/05 08:35:29;;;;;;;12.50;2.85;;;1.20;99.90;;;1.95;76.00;101764.72;5038652;28;20014;-81
2021/03/05 08:38:19;;;;;;;8.98;3.05;;;1.20;99.90;;;2.11;75.56;101771.06;5016426;28;20099;-83
2021/03/05 08:40:45;;;;;;;9.80;3.25;;;1.20;99.90;;;2.28;75.06;101777.09;5029353;28;20052;-81
2021/03/05 08:43:10;;;;;;;6.97;3.00;;;1.30;99.90;;;2.52;75.12;101783.72;5027483;28;20022;-82
2021/03/05 08:46:04;;;;;;;10.05;2.97;;;1.50;99.90;;;2.62;73.26;101788.41;5026982;28;20024;-83
2021/03/05 08:48:48;;;;;;;7.85;3.00;;;1.70;99.90;;;2.56;74.04;101786.75;5022456;28;20037;-82
2021/03/05 08:51:22;;;;;;;7.78;2.95;;;1.60;99.90;;;2.69;74.07;101782.63;5031067;28;20097;-81
2021/03/05 08:53:55;;;;;;;8.73;3.50;;;1.80;99.90;;;3.26;72.80;101771.97;5040546;28;20037;-80
2021/03/05 08:56:27;;;;;;;6.15;2.45;;;2.20;99.90;;;4.06;69.28;101792.81;5027695;28;20033;-82
2021/03/05 08:59:06;;;;;;;7.50;2.95;;;2.70;99.90;;;4.90;67.83;101796.22;5022212;28;20053;-81
2021/03/05 09:01:39;;;;;;;7.28;2.78;;;3.30;99.90;;;5.40;65.00;101784.56;5032220;28;20013;-82
2021/03/05 09:04:12;;;;;;;9.73;2.75;;;3.80;99.90;;;4.89;65.77;101791.81;5025823;28;20098;-83
2021/03/05 09:06:59;;;;;;;7.13;2.65;;;3.70;99.90;;;4.53;65.61;101797.69;5041055;28;20022;-80
2021/03/05 09:09:30;;;;;;;6.05;2.53;;;3.50;99.90;;;3.88;68.09;101798.19;5025143;28;20040;-83
2021/03/05 09:12:21;;;;;;;8.40;2.70;;;3.20;99.90;;;3.56;69.31;101807.72;5025575;28;20163;-81
2021/03/05 09:14:59;;;;;;;8.63;3.25;;;2.70;99.90;;;3.22;70.18;101804.00;5040131;28;20385;-82
2021/03/05 09:17:25;;;;;;;7.47;2.90;;;2.40;99.90;;;3.36;70.97;101802.31;5027047;28;20246;-80
2021/03/05 09:19:51;;;;;;;10.27;2.80;;;2.40;99.90;;;3.40;70.87;101806.16;5041333;28;20029;-82
2021/03/05 09:22:25;;;;;;;6.20;2.70;;;2.30;99.90;;;3.77;70.45;101799.34;5024244;28;20033;-82
2021/03/05 09:24:56;;;;;;;11.52;2.88;;;2.60;99.90;;;4.30;69.05;101806.75;5023152;28;20041;-80
2021/03/05 09:27:39;;;;;;;6.10;2.55;;;3.00;99.90;;;4.97;67.27;101807.78;5024671;28;20029;-79
2021/03/05 09:30:26;;;;;;;7.82;3.00;;;3.50;99.90;;;5.52;65.35;101807.13;5035224;28;20033;-82
2021/03/05 09:32:59;;;;;;;10.95;2.90;;;4.00;99.90;;;5.70;63.13;101817.44;5032048;28;20029;-81
2021/03/05 09:35:31;;;;;;;6.60;2.55;;;4.30;99.90;;;5.90;62.20;101810.00;5036118;28;20029;-80
2021/03/05 09:37:59;;;;;;;6.45;2.63;;;4.70;99.90;;;6.32;61.46;101818.25;5030054;28;20029;-81
2021/03/05 09:40:28;;;;;;;5.43;2.55;;;5.10;99.90;;;6.61;59.84;101807.78;5019487;28;20497;-81
2021/03/05 09:43:01;;;;;;;9.18;2.72;;;5.40;99.90;;;6.81;59.20;101810.19;5028860;28;20025;-80
2021/03/05 09:45:50;;;;;;;9.70;2.72;;;5.60;99.90;;;6.79;60.05;101806.06;5040485;28;20393;-80
2021/03/05 09:48:35;;;;;;;7.55;2.42;;;5.60;99.90;;;7.41;57.43;101810.16;5039400;28;20033;-79
2021/03/05 09:51:08;;;;;;;7.10;2.40;;;5.90;99.90;;;7.38;57.57;101806.03;5019829;28;20482;-80
2021/03/05 09:53:47;;;;;;;5.10;2.13;;;6.20;99.90;;;7.42;56.65;101811.78;5025335;28;20030;-79
2021/03/05 09:56:15;;;;;;;5.53;1.90;;;6.40;99.90;;;7.72;55.27;101827.84;5034200;28;20092;-80
2021/03/05 09:59:00;;;;;;;3.85;2.15;;;6.60;99.90;;;7.73;55.13;101825.91;5038195;28;20060;-80
2021/03/05 10:01:33;;;;;;;7.20;2.33;;;6.60;99.90;;;8.10;56.90;101810.88;5026774;28;20497;-80
2021/03/05 10:04:03;;;;;;;8.07;2.28;;;6.90;99.90;;;8.90;53.74;101828.41;5037840;28;20450;-81
2021/03/05 10:06:34;;;;;;;6.22;2.45;;;7.40;99.90;;;9.53;50.90;101832.84;5030907;28;20028;-81
2021/03/05 10:09:15;;;;;;;6.15;2.33;;;7.80;99.90;;;8.51;51.44;101831.06;5037566;28;20034;-83
2021/03/05 10:11:44;;;;;;;5.80;2.65;;;7.70;99.90;;;8.58;54.29;101825.91;5030586;28;20022;-83
2021/03/05 10:14:36;;;;;;;7.63;2.45;;;7.50;99.90;;;7.91;52.69;101823.00;5040000;28;20029;-84
2021/03/05 10:17:13;;;;;;;10.88;2.63;;;7.30;99.20;;;8.07;54.55;101834.59;5021910;28;20022;-84
2021/03/05 10:19:45;;;;;;;7.65;2.15;;;7.10;99.90;;;8.10;53.17;101835.94;5037983;28;20421;-81
2021/03/05 10:22:16;;;;;;;5.90;2.20;;;7.10;99.90;;;8.65;52.81;101844.94;5037719;28;20026;-83
2021/03/05 10:24:42;;;;;;;6.55;2.30;;;7.20;99.90;;;8.88;51.14;101838.22;5038920;28;20047;-81
2021/03/05 10:27:16;;;;;;;2.70;1.55;;;7.50;99.90;;;8.55;50.01;101839.63;5041871;28;20032;-83
2021/03/05 10:29:57;;;;;;;9.07;1.90;;;7.40;97.30;;;8.41;51.17;101837.72;5031251;28;20029;-81
2021/03/05 10:32:43;;;;;;;5.25;1.70;;;7.30;99.70;;;9.02;51.07;101846.53;5040308;28;20033;-82
2021/03/05 10:35:24;;;;;;;8.05;2.55;;;7.50;99.90;;;8.69;48.34;101840.41;5033618;28;20037;-84
2021/03/05 10:37:53;;;;;;;4.95;1.73;;;7.50;93.30;;;9.05;48.75;101841.13;5040652;28;20037;-83
2021/03/05 10:40:20;;;;;;;2.95;1.77;;;7.50;95.90;;;8.94;48.63;101848.09;5035352;28;20036;-83
2021/03/05 10:42:49;;;;;;;3.72;1.52;;;7.50;94.70;;;8.77;48.92;101856.34;5020188;28;20037;-83